Time;durP1;ratioP1;P1;durP2;ratioP2;P2;SDS_P1;SDS_P2;PMS_P1;PMS_P2;Temp;Humidity;BMP_temperature;BMP_pressure;BME280_temperature;BME280_humidity;BME280_pressure;Samples;Min_cycle;Max_cycle;Signal;HPM_P1;HPM_P2
2022/11/29 00:01:28;;;;;;;;;;;8.90;99.90;;;;;;5081787;28;19928;-73
2022/11/29 00:03:54;;;;;;;;;;;8.90;99.90;;;;;;5081650;28;19924;-72
2022/11/29 00:06:26;;;;;;;;;;;8.90;99.90;;;;;;5082801;28;19916;-75
2022/11/29 00:08:52;;;;;;;;;;;8.90;99.90;;;;;;5080604;28;20019;-72
2022/11/29 00:14:04;;;;;;;;;;;8.90;99.90;;;;;;5079133;28;19986;-73
2022/11/29 00:16:30;;;;;;;;;;;8.90;99.90;;;;;;5080868;28;20340;-73
2022/11/29 00:18:55;;;;;;;;;;;8.90;99.90;;;;;;5083040;28;20019;-73
2022/11/29 00:21:21;;;;;;;;;;;8.90;99.90;;;;;;5081514;28;19916;-73
2022/11/29 00:23:47;;;;;;;;;;;8.90;99.90;;;;;;5080406;28;19956;-74
2022/11/29 00:26:12;;;;;;;;;;;8.90;99.90;;;;;;5073860;28;19946;-73
2022/11/29 00:28:38;;;;;;;;;;;8.90;99.90;;;;;;5077078;28;19912;-74
2022/11/29 00:31:18;;;;;;;;;;;8.90;99.90;;;;;;5078211;28;19924;-74
2022/11/29 00:33:43;;;;;;;;;;;8.90;99.90;;;;;;5079386;28;19912;-73
2022/11/29 00:36:10;;;;;;;;;;;9.00;99.90;;;;;;5079747;28;19978;-73
2022/11/29 00:38:35;;;;;;;;;;;8.90;99.90;;;;;;5089569;28;20436;-74
2022/11/29 00:41:01;;;;;;;;;;;8.80;99.90;;;;;;5086585;28;19924;-73
2022/11/29 00:43:27;;;;;;;;;;;8.80;99.90;;;;;;5079221;28;19931;-73
2022/11/29 00:45:53;;;;;;;;;;;8.80;99.90;;;;;;5079894;28;19924;-73
2022/11/29 00:48:18;;;;;;;;;;;8.80;99.90;;;;;;5081000;28;20003;-73
2022/11/29 00:50:44;;;;;;;;;;;8.90;99.90;;;;;;5078056;28;19997;-73
2022/11/29 00:53:10;;;;;;;;;;;8.80;99.90;;;;;;5082065;28;19920;-73
2022/11/29 00:55:35;;;;;;;;;;;8.90;99.90;;;;;;5078280;28;19920;-73
2022/11/29 00:58:01;;;;;;;;;;;8.80;99.90;;;;;;5076573;28;19957;-72
2022/11/29 01:00:27;;;;;;;;;;;8.80;99.90;;;;;;5075374;28;19912;-72
2022/11/29 01:02:52;;;;;;;;;;;8.80;99.90;;;;;;5076717;28;19919;-72
2022/11/29 01:05:18;;;;;;;;;;;8.80;99.90;;;;;;5073172;28;19920;-73
2022/11/29 01:07:44;;;;;;;;;;;8.80;99.90;;;;;;5079693;28;19920;-73
2022/11/29 01:10:09;;;;;;;;;;;8.80;99.90;;;;;;5082689;28;20121;-72
2022/11/29 01:12:35;;;;;;;;;;;8.70;99.90;;;;;;5081694;28;19912;-73
2022/11/29 01:15:02;;;;;;;;;;;8.70;99.90;;;;;;5082616;28;19921;-73
2022/11/29 01:17:29;;;;;;;;;;;8.70;99.90;;;;;;5081626;28;19912;-73
2022/11/29 01:19:54;;;;;;;;;;;8.50;99.90;;;;;;5089534;28;19916;-73
2022/11/29 01:22:20;;;;;;;;;;;8.50;99.90;;;;;;5080955;28;19923;-73
2022/11/29 01:24:45;;;;;;;;;;;8.40;99.90;;;;;;5073925;28;19916;-73
2022/11/29 01:27:11;;;;;;;;;;;8.40;99.90;;;;;;5073341;28;19913;-73
2022/11/29 01:29:37;;;;;;;;;;;8.30;99.90;;;;;;5075274;28;20272;-73
2022/11/29 01:32:03;;;;;;;;;;;8.20;99.90;;;;;;5074832;28;19912;-73
2022/11/29 01:34:29;;;;;;;;;;;8.20;99.90;;;;;;5075711;28;19923;-72
2022/11/29 01:36:55;;;;;;;;;;;8.20;99.90;;;;;;5076520;28;20398;-72
2022/11/29 01:39:20;;;;;;;;;;;8.10;99.90;;;;;;5076754;28;19912;-73
2022/11/29 01:41:46;;;;;;;;;;;8.10;99.90;;;;;;5085082;28;19912;-73
2022/11/29 01:44:12;;;;;;;;;;;8.10;99.90;;;;;;5083993;28;19920;-73
2022/11/29 01:46:42;;;;;;;;;;;8.10;99.90;;;;;;5078364;28;20355;-73
2022/11/29 01:49:07;;;;;;;;;;;8.10;99.90;;;;;;5079523;28;19923;-73
2022/11/29 01:51:34;;;;;;;;;;;8.10;99.90;;;;;;5075472;28;19912;-73
2022/11/29 01:54:00;;;;;;;;;;;8.00;99.90;;;;;;5077527;28;20583;-73
2022/11/29 01:56:27;;;;;;;;;;;8.00;99.90;;;;;;5079059;28;19957;-72
2022/11/29 01:58:53;;;;;;;;;;;8.00;99.90;;;;;;5079852;28;20291;-72
2022/11/29 02:01:19;;;;;;;;;;;8.10;99.90;;;;;;5079373;28;19921;-72
2022/11/29 02:03:44;;;;;;;;;;;8.00;99.90;;;;;;5077963;28;19920;-73
2022/11/29 02:06:10;;;;;;;;;;;8.00;99.90;;;;;;5076112;28;19994;-73
2022/11/29 02:08:37;;;;;;;;;;;8.00;99.90;;;;;;5077626;28;20321;-72
2022/11/29 02:11:12;;;;;;;;;;;8.10;99.90;;;;;;5078325;28;20272;-72
2022/11/29 02:13:56;;;;;;;;;;;8.00;99.90;;;;;;5079592;28;19919;-72
2022/11/29 02:16:25;;;;;;;;;;;8.00;99.90;;;;;;5079670;28;19916;-73
2022/11/29 02:18:50;;;;;;;;;;;7.90;99.90;;;;;;5080238;28;19920;-72
2022/11/29 02:21:22;;;;;;;;;;;8.00;99.90;;;;;;5077816;28;19970;-73
2022/11/29 02:24:06;;;;;;;;;;;8.00;99.90;;;;;;5077682;28;19924;-73
2022/11/29 02:26:57;;;;;;;;;;;7.90;99.90;;;;;;5077705;28;19985;-72
2022/11/29 02:29:26;;;;;;;;;;;7.90;99.90;;;;;;5078938;28;19916;-73
2022/11/29 02:32:10;;;;;;;;;;;7.90;99.90;;;;;;5080084;28;19916;-72
2022/11/29 02:34:54;;;;;;;;;;;7.90;99.90;;;;;;5079344;28;19916;-72
2022/11/29 02:37:40;;;;;;;;;;;7.80;99.90;;;;;;5079689;28;19918;-72
2022/11/29 02:40:21;;;;;;;;;;;7.70;99.90;;;;;;5077888;28;19943;-72
2022/11/29 02:43:06;;;;;;;;;;;7.70;99.90;;;;;;5083027;28;19922;-73
2022/11/29 02:45:37;;;;;;;;;;;7.70;99.90;;;;;;5083024;28;19916;-72
2022/11/29 02:48:22;;;;;;;;;;;7.70;99.90;;;;;;5082773;28;19912;-72
2022/11/29 02:50:57;;;;;;;;;;;7.70;99.90;;;;;;5085599;28;19965;-72
2022/11/29 02:53:32;;;;;;;;;;;7.80;99.90;;;;;;5091556;28;19918;-72
2022/11/29 02:56:07;;;;;;;;;;;7.80;99.90;;;;;;5078892;28;20324;-72
2022/11/29 02:58:36;;;;;;;;;;;7.90;99.90;;;;;;5079669;28;19967;-72
2022/11/29 03:01:14;;;;;;;;;;;7.90;99.90;;;;;;5080264;28;19916;-73
2022/11/29 03:03:45;;;;;;;;;;;7.90;99.90;;;;;;5079895;28;20391;-72
2022/11/29 03:06:11;;;;;;;;;;;7.90;99.90;;;;;;5080285;28;19927;-72
2022/11/29 03:08:40;;;;;;;;;;;7.90;99.90;;;;;;5081436;28;19916;-72
2022/11/29 03:11:25;;;;;;;;;;;7.90;99.90;;;;;;5090834;28;19955;-73
2022/11/29 03:14:19;;;;;;;;;;;7.80;99.90;;;;;;5088391;28;19916;-73
2022/11/29 03:17:04;;;;;;;;;;;7.80;99.90;;;;;;5037152;28;19913;-72
2022/11/29 03:19:38;;;;;;;;;;;7.70;99.90;;;;;;5087094;28;20066;-73
2022/11/29 03:22:11;;;;;;;;;;;7.70;99.90;;;;;;5086851;28;20307;-73
2022/11/29 03:24:43;;;;;;;;;;;7.60;99.90;;;;;;5091635;28;20290;-72
2022/11/29 03:27:11;;;;;;;;;;;7.60;99.90;;;;;;5093537;28;19932;-72
2022/11/29 03:29:39;;;;;;;;;;;7.70;99.90;;;;;;5089445;28;19912;-71
2022/11/29 03:32:09;;;;;;;;;;;7.70;99.90;;;;;;5092972;28;19977;-72
2022/11/29 03:34:58;;;;;;;;;;;7.70;99.90;;;;;;5082933;28;19921;-74
2022/11/29 03:37:39;;;;;;;;;;;7.70;99.90;;;;;;5092133;28;19908;-72
2022/11/29 03:40:09;;;;;;;;;;;7.80;99.90;;;;;;5082310;28;20431;-74
2022/11/29 03:42:46;;;;;;;;;;;7.80;99.90;;;;;;5088288;28;20008;-72
2022/11/29 03:45:20;;;;;;;;;;;7.80;99.90;;;;;;5090120;28;19928;-72
2022/11/29 03:48:06;;;;;;;;;;;7.80;99.90;;;;;;5086869;28;19932;-72
2022/11/29 03:50:40;;;;;;;;;;;7.70;99.90;;;;;;5086784;28;19912;-76
2022/11/29 03:53:24;;;;;;;;;;;7.80;99.90;;;;;;5087427;28;20349;-72
2022/11/29 03:55:50;;;;;;;;;;;7.80;99.90;;;;;;5086248;28;19912;-73
2022/11/29 03:58:31;;;;;;;;;;;7.70;99.90;;;;;;5093644;28;20294;-75
2022/11/29 04:00:56;;;;;;;;;;;7.70;99.90;;;;;;5081822;28;19968;-73
2022/11/29 04:03:31;;;;;;;;;;;7.80;99.90;;;;;;5087491;28;19956;-73
2022/11/29 04:06:15;;;;;;;;;;;7.70;99.90;;;;;;5088762;28;19916;-72
2022/11/29 04:08:53;;;;;;;;;;;7.70;99.90;;;;;;5086414;28;19908;-73
2022/11/29 04:11:35;;;;;;;;;;;7.70;99.90;;;;;;5085462;28;19912;-72
2022/11/29 04:14:21;;;;;;;;;;;7.70;99.90;;;;;;5087488;28;19918;-77
2022/11/29 04:16:56;;;;;;;;;;;7.70;99.90;;;;;;5081470;28;19912;-72
2022/11/29 04:19:55;;;;;;;;;;;7.70;99.90;;;;;;5091022;28;19927;-73
2022/11/29 04:22:42;;;;;;;;;;;7.70;99.90;;;;;;5045232;28;19912;-72
2022/11/29 04:25:08;;;;;;;;;;;7.70;99.90;;;;;;5088586;28;19916;-72
2022/11/29 04:27:53;;;;;;;;;;;7.80;99.90;;;;;;5091654;28;19923;-72
2022/11/29 04:30:23;;;;;;;;;;;7.80;99.90;;;;;;5052286;28;19912;-72
2022/11/29 04:33:03;;;;;;;;;;;7.80;99.90;;;;;;5091981;28;19912;-75
2022/11/29 04:35:29;;;;;;;;;;;7.70;99.90;;;;;;5090594;28;19931;-73
2022/11/29 04:38:14;;;;;;;;;;;7.70;99.90;;;;;;5093031;28;19919;-73
2022/11/29 04:40:39;;;;;;;;;;;7.80;99.90;;;;;;5086963;28;19995;-74
2022/11/29 04:43:23;;;;;;;;;;;7.70;99.90;;;;;;5081914;28;20012;-73
2022/11/29 04:46:04;;;;;;;;;;;7.70;99.90;;;;;;5078366;28;19987;-73
2022/11/29 04:48:33;;;;;;;;;;;7.80;99.90;;;;;;5078092;28;19920;-72
2022/11/29 04:51:17;;;;;;;;;;;7.80;99.90;;;;;;5077431;28;20378;-72
2022/11/29 04:53:49;;;;;;;;;;;7.80;99.90;;;;;;5079440;28;19923;-73
2022/11/29 04:56:24;;;;;;;;;;;7.80;99.90;;;;;;5079936;28;19927;-73
2022/11/29 04:59:06;;;;;;;;;;;7.80;99.90;;;;;;5081429;28;19959;-72
2022/11/29 05:02:01;;;;;;;;;;;7.80;99.90;;;;;;5078772;28;21710;-73
2022/11/29 05:04:31;;;;;;;;;;;7.80;99.90;;;;;;5059486;28;20090;-72
2022/11/29 05:06:57;;;;;;;;;;;7.80;99.90;;;;;;5077194;28;19963;-72
2022/11/29 05:09:41;;;;;;;;;;;7.70;99.90;;;;;;5076886;28;19912;-72
2022/11/29 05:12:28;;;;;;;;;;;7.80;99.90;;;;;;5077535;28;20375;-72
2022/11/29 05:15:12;;;;;;;;;;;7.70;99.90;;;;;;5078446;28;19923;-73
2022/11/29 05:18:00;;;;;;;;;;;7.80;99.90;;;;;;5085424;28;19973;-72
2022/11/29 05:20:42;;;;;;;;;;;7.80;99.90;;;;;;5094524;28;19950;-72
2022/11/29 05:23:22;;;;;;;;;;;7.80;99.90;;;;;;5089636;28;20326;-73
2022/11/29 05:25:59;;;;;;;;;;;7.90;99.90;;;;;;5080894;28;19924;-73
2022/11/29 05:28:28;;;;;;;;;;;7.90;99.90;;;;;;5081000;28;19956;-73
2022/11/29 05:30:56;;;;;;;;;;;8.00;99.90;;;;;;5080968;28;19912;-72
2022/11/29 05:33:25;;;;;;;;;;;7.80;99.90;;;;;;5083368;28;19920;-72
2022/11/29 05:35:57;;;;;;;;;;;7.80;99.90;;;;;;5081720;28;19917;-73
2022/11/29 05:38:23;;;;;;;;;;;7.70;99.90;;;;;;5081163;28;19951;-76
2022/11/29 05:41:06;;;;;;;;;;;7.70;99.90;;;;;;5083421;28;19974;-73
2022/11/29 05:43:41;;;;;;;;;;;7.70;99.90;;;;;;5095705;28;19940;-74
2022/11/29 05:46:28;;;;;;;;;;;7.60;99.90;;;;;;5087351;28;19913;-73
2022/11/29 05:49:13;;;;;;;;;;;7.60;99.90;;;;;;5089659;28;19920;-73
2022/11/29 05:51:54;;;;;;;;;;;7.60;99.90;;;;;;5088899;28;19916;-73
2022/11/29 05:54:20;;;;;;;;;;;7.60;99.90;;;;;;5088114;28;19951;-73
2022/11/29 05:56:52;;;;;;;;;;;7.70;99.90;;;;;;5089252;28;19912;-74
2022/11/29 05:59:20;;;;;;;;;;;7.80;99.90;;;;;;5095006;28;20521;-73
2022/11/29 06:02:05;;;;;;;;;;;7.80;99.90;;;;;;5084060;28;19959;-74
2022/11/29 06:04:37;;;;;;;;;;;7.80;99.90;;;;;;5092165;28;19924;-73
2022/11/29 06:07:10;;;;;;;;;;;7.70;99.90;;;;;;5088987;28;19923;-72
2022/11/29 06:09:47;;;;;;;;;;;7.70;99.90;;;;;;5090012;28;19948;-76
2022/11/29 06:12:14;;;;;;;;;;;7.70;99.90;;;;;;5093815;28;20359;-72
2022/11/29 06:14:58;;;;;;;;;;;7.80;99.90;;;;;;5086290;28;19958;-73
2022/11/29 06:17:42;;;;;;;;;;;7.80;99.90;;;;;;5084949;28;19943;-73
2022/11/29 06:20:26;;;;;;;;;;;7.80;99.90;;;;;;5085998;28;19927;-77
2022/11/29 06:23:01;;;;;;;;;;;7.80;99.90;;;;;;5092085;28;19920;-73
2022/11/29 06:25:40;;;;;;;;;;;7.80;99.90;;;;;;5082712;28;19916;-73
2022/11/29 06:28:25;;;;;;;;;;;7.90;99.90;;;;;;5089523;28;19938;-72
2022/11/29 06:30:59;;;;;;;;;;;8.00;99.90;;;;;;5088535;28;19913;-73
2022/11/29 06:33:28;;;;;;;;;;;8.00;99.90;;;;;;5092960;28;19995;-73
2022/11/29 06:36:10;;;;;;;;;;;8.00;99.90;;;;;;5085429;28;20475;-73
2022/11/29 06:38:36;;;;;;;;;;;8.10;99.90;;;;;;5093867;28;19927;-72
2022/11/29 06:41:01;;;;;;;;;;;8.00;99.90;;;;;;5084129;28;19912;-72
2022/11/29 06:43:27;;;;;;;;;;;8.00;99.90;;;;;;5093075;28;20000;-73
2022/11/29 06:46:03;;;;;;;;;;;8.00;99.90;;;;;;5089400;28;19930;-72
2022/11/29 06:48:34;;;;;;;;;;;8.00;99.90;;;;;;5094021;28;20649;-74
2022/11/29 06:51:00;;;;;;;;;;;8.00;99.90;;;;;;5092865;28;19957;-73
2022/11/29 06:53:25;;;;;;;;;;;8.00;99.90;;;;;;5092704;28;19912;-73
2022/11/29 06:55:51;;;;;;;;;;;8.00;99.90;;;;;;5089449;28;19915;-72
2022/11/29 06:58:46;;;;;;;;;;;7.90;99.90;;;;;;5092251;28;19998;-72
2022/11/29 07:01:34;;;;;;;;;;;7.90;99.90;;;;;;5040494;28;20400;-72
2022/11/29 07:04:20;;;;;;;;;;;8.00;99.90;;;;;;5087970;28;20299;-76
2022/11/29 07:06:46;;;;;;;;;;;8.00;99.90;;;;;;5074019;28;19912;-72
2022/11/29 07:09:19;;;;;;;;;;;8.00;99.90;;;;;;5087545;28;19918;-72
2022/11/29 07:11:45;;;;;;;;;;;8.00;99.90;;;;;;5093049;28;20008;-72
2022/11/29 07:14:11;;;;;;;;;;;8.10;99.90;;;;;;5093828;28;20356;-72
2022/11/29 07:16:40;;;;;;;;;;;8.00;99.90;;;;;;5094659;28;19919;-72
2022/11/29 07:19:06;;;;;;;;;;;8.00;99.90;;;;;;5089235;28;19918;-64
2022/11/29 07:21:44;;;;;;;;;;;8.00;99.90;;;;;;5094044;28;19993;-66
2022/11/29 07:24:10;;;;;;;;;;;8.00;99.90;;;;;;5093652;28;19948;-64
2022/11/29 07:26:49;;;;;;;;;;;8.00;99.90;;;;;;5086753;28;19912;-66
2022/11/29 07:29:33;;;;;;;;;;;7.90;99.90;;;;;;5090737;28;19923;-66
2022/11/29 07:32:13;;;;;;;;;;;7.80;99.90;;;;;;5088020;28;20199;-68
2022/11/29 07:34:47;;;;;;;;;;;7.80;99.90;;;;;;5089895;28;20373;-68
2022/11/29 07:37:13;;;;;;;;;;;7.80;99.90;;;;;;5086876;28;19916;-68
2022/11/29 07:39:52;;;;;;;;;;;7.80;99.90;;;;;;5082240;28;19969;-69
2022/11/29 07:42:30;;;;;;;;;;;7.80;99.90;;;;;;5088679;28;19912;-68
2022/11/29 07:45:02;;;;;;;;;;;7.80;99.90;;;;;;5086103;28;19967;-69
2022/11/29 07:47:28;;;;;;;;;;;7.80;99.90;;;;;;5088498;28;20290;-69
2022/11/29 07:49:53;;;;;;;;;;;7.70;99.90;;;;;;5093056;28;19912;-65
2022/11/29 07:52:22;;;;;;;;;;;7.80;99.90;;;;;;5085746;28;19966;-67
2022/11/29 07:54:47;;;;;;;;;;;7.70;99.90;;;;;;5090948;28;19955;-68
2022/11/29 07:57:13;;;;;;;;;;;7.70;99.90;;;;;;5084458;28;19959;-69
2022/11/29 07:59:38;;;;;;;;;;;7.60;99.90;;;;;;5091941;28;19982;-68
2022/11/29 08:02:04;;;;;;;;;;;7.60;99.90;;;;;;5089916;28;19924;-70
2022/11/29 08:04:30;;;;;;;;;;;7.60;99.90;;;;;;5088551;28;19946;-68
2022/11/29 08:06:59;;;;;;;;;;;7.60;99.90;;;;;;5081889;28;20275;-68
2022/11/29 08:09:25;;;;;;;;;;;7.70;99.90;;;;;;5088549;28;19932;-67
2022/11/29 08:11:51;;;;;;;;;;;7.70;99.90;;;;;;5088697;28;19908;-65
2022/11/29 08:14:17;;;;;;;;;;;7.80;99.90;;;;;;5089668;28;19912;-66
2022/11/29 08:16:42;;;;;;;;;;;7.90;99.90;;;;;;5089644;28;19981;-69
2022/11/29 08:19:08;;;;;;;;;;;7.90;99.90;;;;;;5089651;28;19912;-68
2022/11/29 08:21:33;;;;;;;;;;;7.90;99.90;;;;;;5089471;28;19960;-68
2022/11/29 08:23:59;;;;;;;;;;;7.90;99.90;;;;;;5080008;28;19945;-67
2022/11/29 08:26:25;;;;;;;;;;;8.00;99.90;;;;;;5086084;28;19915;-66
2022/11/29 08:28:51;;;;;;;;;;;8.10;99.90;;;;;;5088494;28;19912;-66
2022/11/29 08:31:17;;;;;;;;;;;8.00;99.90;;;;;;5089998;28;19916;-66
2022/11/29 08:33:43;;;;;;;;;;;8.00;99.90;;;;;;5089899;28;20010;-67
2022/11/29 08:36:10;;;;;;;;;;;8.00;99.90;;;;;;5090296;28;20338;-68
2022/11/29 08:38:36;;;;;;;;;;;8.00;99.90;;;;;;5088921;28;19995;-65
2022/11/29 08:41:02;;;;;;;;;;;7.90;99.90;;;;;;5087095;28;19935;-69
2022/11/29 08:43:28;;;;;;;;;;;7.90;99.90;;;;;;5084815;28;19974;-68
2022/11/29 08:45:54;;;;;;;;;;;7.90;99.90;;;;;;5091831;28;19927;-64
2022/11/29 08:48:20;;;;;;;;;;;7.80;99.90;;;;;;5090995;28;20025;-65
2022/11/29 08:50:48;;;;;;;;;;;7.90;99.90;;;;;;5089510;28;20005;-66
2022/11/29 08:55:58;;;;;;;;;;;7.90;99.90;;;;;;5086145;28;19942;-65
2022/11/29 08:58:24;;;;;;;;;;;7.80;99.90;;;;;;5091483;28;19908;-66
2022/11/29 09:00:50;;;;;;;;;;;7.90;99.90;;;;;;5085783;28;20429;-67
2022/11/29 09:06:08;;;;;;;;;;;7.90;99.90;;;;;;5087303;28;19924;-66
2022/11/29 09:08:33;;;;;;;;;;;8.00;99.90;;;;;;5088403;28;19931;-66
2022/11/29 09:10:59;;;;;;;;;;;8.00;99.90;;;;;;5089873;28;19912;-67
2022/11/29 09:13:25;;;;;;;;;;;8.00;99.90;;;;;;5084063;28;20279;-66
2022/11/29 09:15:50;;;;;;;;;;;8.00;99.90;;;;;;5089374;28;20282;-66
2022/11/29 09:18:16;;;;;;;;;;;8.00;99.90;;;;;;5089109;28;19912;-66
2022/11/29 09:20:42;;;;;;;;;;;8.00;99.90;;;;;;5089473;28;19912;-66
2022/11/29 09:23:09;;;;;;;;;;;8.00;99.90;;;;;;5087378;28;19916;-65
2022/11/29 09:25:35;;;;;;;;;;;8.00;99.90;;;;;;5089418;28;19920;-67
2022/11/29 09:28:01;;;;;;;;;;;8.00;99.90;;;;;;5089766;28;19919;-68
2022/11/29 09:30:30;;;;;;;;;;;8.00;99.90;;;;;;5092803;28;20346;-67
2022/11/29 09:32:58;;;;;;;;;;;8.10;99.90;;;;;;5090005;28;19920;-68
2022/11/29 09:35:24;;;;;;;;;;;8.10;99.90;;;;;;5087313;28;19919;-67
2022/11/29 09:37:49;;;;;;;;;;;8.20;99.90;;;;;;5090925;28;19908;-67
2022/11/29 09:40:18;;;;;;;;;;;8.20;99.90;;;;;;5082579;28;19943;-67
2022/11/29 09:42:54;;;;;;;;;;;8.20;99.90;;;;;;5086645;28;19916;-67
2022/11/29 09:45:25;;;;;;;;;;;8.20;99.90;;;;;;5087878;28;20003;-67
2022/11/29 09:48:01;;;;;;;;;;;8.20;99.90;;;;;;5091740;28;19982;-67
2022/11/29 09:50:33;;;;;;;;;;;8.20;99.90;;;;;;5091013;28;19963;-68
2022/11/29 09:53:16;;;;;;;;;;;8.20;99.90;;;;;;5088932;28;19923;-68
2022/11/29 09:55:56;;;;;;;;;;;8.20;99.90;;;;;;5084004;28;19924;-67
2022/11/29 09:58:25;;;;;;;;;;;8.30;99.90;;;;;;5088148;28;20007;-67
2022/11/29 10:00:57;;;;;;;;;;;8.30;99.90;;;;;;5089335;28;20251;-66
2022/11/29 10:03:30;;;;;;;;;;;8.30;99.90;;;;;;5091422;28;19916;-66
2022/11/29 10:05:59;;;;;;;;;;;8.40;99.90;;;;;;5091767;28;19920;-66
2022/11/29 10:08:41;;;;;;;;;;;8.30;99.90;;;;;;5094804;28;19942;-66
2022/11/29 10:11:15;;;;;;;;;;;8.20;99.90;;;;;;5091769;28;19919;-66
2022/11/29 10:13:44;;;;;;;;;;;8.20;99.90;;;;;;5076913;28;20420;-66
2022/11/29 10:16:10;;;;;;;;;;;8.20;99.90;;;;;;5093217;28;20379;-68
2022/11/29 10:18:57;;;;;;;;;;;8.20;99.90;;;;;;5094512;28;19938;-67
2022/11/29 10:21:27;;;;;;;;;;;8.30;99.90;;;;;;5091528;28;19920;-67
2022/11/29 10:23:58;;;;;;;;;;;8.20;99.90;;;;;;5087110;28;19908;-67
2022/11/29 10:26:24;;;;;;;;;;;8.30;99.90;;;;;;5087864;28;19912;-67
2022/11/29 10:28:49;;;;;;;;;;;8.30;99.90;;;;;;5094372;28;19915;-67
2022/11/29 10:31:30;;;;;;;;;;;8.20;99.90;;;;;;5095236;28;19915;-67
2022/11/29 10:33:59;;;;;;;;;;;8.30;99.90;;;;;;5093895;28;19954;-65
2022/11/29 10:36:28;;;;;;;;;;;8.30;99.90;;;;;;5089768;28;19952;-66
2022/11/29 10:38:57;;;;;;;;;;;8.30;99.90;;;;;;5089940;28;20024;-67
2022/11/29 10:41:24;;;;;;;;;;;8.20;99.90;;;;;;5087831;28;20023;-69
2022/11/29 10:43:50;;;;;;;;;;;8.10;99.90;;;;;;5092655;28;19912;-65
2022/11/29 10:46:25;;;;;;;;;;;8.10;99.90;;;;;;5093928;28;20344;-65
2022/11/29 10:48:51;;;;;;;;;;;8.10;99.90;;;;;;5095004;28;20025;-67
2022/11/29 10:51:17;;;;;;;;;;;8.10;99.90;;;;;;5095134;28;19912;-69
2022/11/29 10:53:43;;;;;;;;;;;8.10;99.90;;;;;;5090160;28;20401;-72
2022/11/29 10:56:12;;;;;;;;;;;8.10;99.90;;;;;;5096804;28;20157;-70
2022/11/29 10:58:51;;;;;;;;;;;8.10;99.90;;;;;;5082281;28;19995;-65
2022/11/29 11:01:17;;;;;;;;;;;8.10;99.90;;;;;;5093273;28;20511;-68
2022/11/29 11:03:48;;;;;;;;;;;8.10;99.90;;;;;;5091534;28;19924;-67
2022/11/29 11:06:16;;;;;;;;;;;8.10;99.90;;;;;;5088885;28;19970;-68
2022/11/29 11:08:46;;;;;;;;;;;8.10;99.90;;;;;;5094704;28;19916;-67
2022/11/29 11:11:13;;;;;;;;;;;8.20;99.90;;;;;;5088324;28;19977;-68
2022/11/29 11:13:39;;;;;;;;;;;8.20;99.90;;;;;;5087719;28;19987;-67
2022/11/29 11:16:10;;;;;;;;;;;8.30;99.90;;;;;;5089472;28;20337;-67
2022/11/29 11:18:36;;;;;;;;;;;8.30;99.90;;;;;;5089811;28;19940;-68
2022/11/29 11:21:02;;;;;;;;;;;8.30;99.90;;;;;;5088731;28;19919;-68
2022/11/29 11:23:32;;;;;;;;;;;8.30;99.90;;;;;;5090943;28;19908;-68
2022/11/29 11:26:01;;;;;;;;;;;8.20;99.90;;;;;;5082742;28;20284;-68
2022/11/29 11:28:28;;;;;;;;;;;8.20;99.90;;;;;;5088419;28;20003;-69
2022/11/29 11:30:56;;;;;;;;;;;8.20;99.90;;;;;;5079274;28;20371;-69
2022/11/29 11:33:28;;;;;;;;;;;8.20;99.90;;;;;;5086017;28;20398;-68
2022/11/29 11:36:14;;;;;;;;;;;8.20;99.90;;;;;;5088107;28;19916;-68
2022/11/29 11:38:47;;;;;;;;;;;8.20;99.90;;;;;;5074060;28;19958;-68
2022/11/29 11:41:19;;;;;;;;;;;8.30;99.90;;;;;;5090158;28;19923;-67
2022/11/29 11:43:49;;;;;;;;;;;8.30;99.90;;;;;;5088797;28;19945;-69
2022/11/29 11:46:15;;;;;;;;;;;8.30;99.90;;;;;;5086515;28;19963;-68
2022/11/29 11:48:41;;;;;;;;;;;8.30;99.90;;;;;;5083230;28;20404;-68
2022/11/29 11:51:17;;;;;;;;;;;8.40;99.90;;;;;;5087052;28;20400;-67
2022/11/29 11:53:48;;;;;;;;;;;8.40;99.90;;;;;;5090029;28;19912;-69
2022/11/29 11:56:14;;;;;;;;;;;8.30;99.90;;;;;;5086418;28;19990;-69
2022/11/29 11:58:43;;;;;;;;;;;8.40;99.90;;;;;;5089114;28;19924;-67
2022/11/29 12:01:11;;;;;;;;;;;8.30;99.90;;;;;;5083173;28;19912;-68
2022/11/29 12:03:40;;;;;;;;;;;8.40;99.90;;;;;;5089641;28;20350;-67
2022/11/29 12:06:05;;;;;;;;;;;8.40;99.90;;;;;;5081876;28;19916;-68
2022/11/29 12:08:32;;;;;;;;;;;8.40;99.90;;;;;;5085547;28;20030;-67
2022/11/29 12:11:04;;;;;;;;;;;8.30;99.90;;;;;;5082377;28;19912;-67
2022/11/29 12:13:32;;;;;;;;;;;8.30;99.90;;;;;;5079941;28;19951;-68
2022/11/29 12:15:59;;;;;;;;;;;8.30;99.90;;;;;;5091404;28;20312;-68
2022/11/29 12:18:33;;;;;;;;;;;8.30;99.90;;;;;;5088626;28;19920;-69
2022/11/29 12:21:02;;;;;;;;;;;8.30;99.90;;;;;;5086169;28;20007;-67
2022/11/29 12:23:39;;;;;;;;;;;8.30;99.90;;;;;;5091250;28;19912;-68
2022/11/29 12:26:16;;;;;;;;;;;8.30;99.90;;;;;;5090265;28;20006;-69
2022/11/29 12:28:43;;;;;;;;;;;8.30;99.90;;;;;;5083085;28;19912;-68
2022/11/29 12:31:21;;;;;;;;;;;8.30;99.90;;;;;;5092633;28;19934;-68
2022/11/29 12:34:13;;;;;;;;;;;8.40;99.90;;;;;;5080387;28;19916;-68
2022/11/29 12:36:39;;;;;;;;;;;8.30;99.90;;;;;;5082869;28;19966;-68
2022/11/29 12:39:04;;;;;;;;;;;8.30;99.90;;;;;;5085356;28;20298;-72
2022/11/29 12:41:33;;;;;;;;;;;8.30;99.90;;;;;;5085352;28;19942;-68
2022/11/29 12:44:03;;;;;;;;;;;8.30;99.90;;;;;;5088812;28;19912;-73
2022/11/29 12:46:29;;;;;;;;;;;8.30;99.90;;;;;;5083880;28;19948;-68
2022/11/29 12:48:58;;;;;;;;;;;8.40;99.90;;;;;;5092535;28;20279;-67
2022/11/29 12:51:43;;;;;;;;;;;8.40;99.90;;;;;;5090538;28;19981;-69
2022/11/29 12:54:32;;;;;;;;;;;8.40;99.90;;;;;;5090029;28;19970;-69
2022/11/29 12:57:04;;;;;;;;;;;8.40;99.90;;;;;;5085762;28;19996;-67
2022/11/29 12:59:59;;;;;;;;;;;8.50;99.90;;;;;;5085860;28;19923;-69
2022/11/29 13:02:44;;;;;;;;;;;8.50;99.90;;;;;;5078239;28;19912;-67
2022/11/29 13:05:18;;;;;;;;;;;8.50;99.90;;;;;;5088604;28;19924;-69
2022/11/29 13:07:58;;;;;;;;;;;8.60;99.90;;;;;;5096409;28;19912;-67
2022/11/29 13:10:42;;;;;;;;;;;8.60;99.90;;;;;;5085939;28;19912;-68
2022/11/29 13:13:14;;;;;;;;;;;8.60;99.90;;;;;;5092559;28;19990;-69
2022/11/29 13:15:39;;;;;;;;;;;8.50;99.90;;;;;;5080427;28;19922;-71
2022/11/29 13:18:17;;;;;;;;;;;8.40;99.90;;;;;;5081219;28;19912;-67
2022/11/29 13:20:52;;;;;;;;;;;8.50;99.90;;;;;;5092211;28;20417;-69
2022/11/29 13:23:21;;;;;;;;;;;8.50;99.90;;;;;;5091675;28;19919;-66
2022/11/29 13:25:53;;;;;;;;;;;8.50;99.90;;;;;;5081236;28;19920;-66
2022/11/29 13:28:21;;;;;;;;;;;8.50;99.90;;;;;;5087335;28;19916;-69
2022/11/29 13:30:47;;;;;;;;;;;8.50;99.90;;;;;;5083977;28;20346;-66
2022/11/29 13:33:23;;;;;;;;;;;8.50;99.90;;;;;;5089659;28;19954;-66
2022/11/29 13:36:09;;;;;;;;;;;8.50;99.90;;;;;;5088841;28;19912;-67
2022/11/29 13:38:38;;;;;;;;;;;8.50;99.90;;;;;;5088029;28;19947;-69
2022/11/29 13:41:22;;;;;;;;;;;8.50;99.90;;;;;;5095756;28;20418;-60
2022/11/29 13:43:53;;;;;;;;;;;8.40;99.90;;;;;;5095410;28;19965;-67
2022/11/29 13:46:19;;;;;;;;;;;8.50;99.90;;;;;;5093213;28;19920;-69
2022/11/29 13:48:48;;;;;;;;;;;8.50;99.90;;;;;;5093666;28;19926;-69
2022/11/29 13:51:25;;;;;;;;;;;8.50;99.90;;;;;;5083302;28;19963;-70
2022/11/29 13:53:51;;;;;;;;;;;8.50;99.90;;;;;;5087941;28;19923;-69
2022/11/29 13:56:24;;;;;;;;;;;8.50;99.90;;;;;;5091360;28;19912;-69
2022/11/29 13:58:53;;;;;;;;;;;8.50;99.90;;;;;;5084619;28;19912;-68
2022/11/29 14:01:20;;;;;;;;;;;8.40;99.90;;;;;;5091340;28;20397;-69
2022/11/29 14:03:59;;;;;;;;;;;8.50;99.90;;;;;;5090428;28;20431;-69
2022/11/29 14:06:33;;;;;;;;;;;8.50;99.90;;;;;;5092437;28;19923;-68
2022/11/29 14:09:17;;;;;;;;;;;8.40;99.90;;;;;;5088000;28;20332;-69
2022/11/29 14:11:48;;;;;;;;;;;8.40;99.90;;;;;;5087973;28;20371;-69
2022/11/29 14:14:14;;;;;;;;;;;8.40;99.90;;;;;;5090788;28;20007;-71
2022/11/29 14:16:43;;;;;;;;;;;8.30;99.90;;;;;;5093681;28;19952;-67
2022/11/29 14:19:11;;;;;;;;;;;8.30;99.90;;;;;;5089378;28;19912;-68
2022/11/29 14:21:56;;;;;;;;;;;8.30;99.90;;;;;;5094992;28;19965;-66
2022/11/29 14:24:30;;;;;;;;;;;8.20;99.90;;;;;;5088508;28;19995;-66
2022/11/29 14:27:05;;;;;;;;;;;8.20;99.90;;;;;;5090981;28;19935;-67
2022/11/29 14:29:46;;;;;;;;;;;8.20;99.90;;;;;;5088819;28;19912;-68
2022/11/29 14:32:30;;;;;;;;;;;8.30;99.90;;;;;;5090999;28;20434;-68
2022/11/29 14:34:59;;;;;;;;;;;8.20;99.90;;;;;;5094696;28;19908;-69
2022/11/29 14:37:29;;;;;;;;;;;8.20;99.90;;;;;;5097185;28;19922;-69
2022/11/29 14:39:57;;;;;;;;;;;8.10;99.90;;;;;;5091098;28;19999;-67
2022/11/29 14:42:24;;;;;;;;;;;8.10;99.90;;;;;;5092580;28;19912;-68
2022/11/29 14:44:51;;;;;;;;;;;8.00;99.90;;;;;;5087940;28;20014;-66
2022/11/29 14:47:20;;;;;;;;;;;8.00;99.90;;;;;;5092749;28;20384;-67
2022/11/29 14:49:46;;;;;;;;;;;7.90;99.90;;;;;;5092771;28;19966;-66
2022/11/29 14:52:14;;;;;;;;;;;7.90;99.90;;;;;;5093770;28;19941;-67
2022/11/29 14:54:51;;;;;;;;;;;7.90;99.90;;;;;;5088104;28;19916;-68
2022/11/29 14:57:36;;;;;;;;;;;7.90;99.90;;;;;;5086517;28;19952;-66
2022/11/29 15:00:02;;;;;;;;;;;7.90;99.90;;;;;;5089027;28;20263;-67
2022/11/29 15:02:43;;;;;;;;;;;7.80;99.90;;;;;;5093673;28;19908;-67
2022/11/29 15:05:15;;;;;;;;;;;7.80;99.90;;;;;;5089247;28;19916;-65
2022/11/29 15:08:13;;;;;;;;;;;7.80;99.90;;;;;;5084942;28;19912;-67